sensor_id;sensor_type;location;lat;lon;timestamp;temperature;humidity
31379;DHT22;61664;48.112;11.662;2024-01-06T00:00:17;9.60;93.60
31379;DHT22;61664;48.112;11.662;2024-01-06T00:02:47;9.50;93.60
31379;DHT22;61664;48.112;11.662;2024-01-06T00:05:14;9.50;93.50
31379;DHT22;61664;48.112;11.662;2024-01-06T00:07:41;9.50;93.60
31379;DHT22;61664;48.112;11.662;2024-01-06T00:10:08;9.60;93.50
31379;DHT22;61664;48.112;11.662;2024-01-06T00:12:35;9.50;93.50
31379;DHT22;61664;48.112;11.662;2024-01-06T00:15:03;9.50;93.60
31379;DHT22;61664;48.112;11.662;2024-01-06T00:17:30;9.50;93.60
31379;DHT22;61664;48.112;11.662;2024-01-06T00:19:57;9.50;93.70
31379;DHT22;61664;48.112;11.662;2024-01-06T00:22:24;9.60;93.70
31379;DHT22;61664;48.112;11.662;2024-01-06T00:24:51;9.50;93.50
31379;DHT22;61664;48.112;11.662;2024-01-06T00:27:18;9.50;93.50
31379;DHT22;61664;48.112;11.662;2024-01-06T00:29:45;9.50;93.60
31379;DHT22;61664;48.112;11.662;2024-01-06T00:32:14;9.50;93.60
31379;DHT22;61664;48.112;11.662;2024-01-06T00:34:40;9.50;93.60
31379;DHT22;61664;48.112;11.662;2024-01-06T00:37:07;9.60;93.60
31379;DHT22;61664;48.112;11.662;2024-01-06T00:39:34;9.50;93.60
31379;DHT22;61664;48.112;11.662;2024-01-06T00:42:01;9.60;93.60
31379;DHT22;61664;48.112;11.662;2024-01-06T00:44:28;9.60;93.60
31379;DHT22;61664;48.112;11.662;2024-01-06T00:46:55;9.50;93.60
31379;DHT22;61664;48.112;11.662;2024-01-06T00:49:22;9.60;93.60
31379;DHT22;61664;48.112;11.662;2024-01-06T00:51:49;9.60;93.40
31379;DHT22;61664;48.112;11.662;2024-01-06T00:54:17;9.50;93.30
31379;DHT22;61664;48.112;11.662;2024-01-06T00:56:44;9.60;93.30
31379;DHT22;61664;48.112;11.662;2024-01-06T00:59:11;9.60;93.30
31379;DHT22;61664;48.112;11.662;2024-01-06T01:01:37;9.50;93.20
31379;DHT22;61664;48.112;11.662;2024-01-06T01:04:04;9.50;93.10
31379;DHT22;61664;48.112;11.662;2024-01-06T01:06:31;9.50;93.10
31379;DHT22;61664;48.112;11.662;2024-01-06T01:08:58;9.50;93.10
31379;DHT22;61664;48.112;11.662;2024-01-06T01:11:28;9.50;93.20
31379;DHT22;61664;48.112;11.662;2024-01-06T01:13:55;9.50;93.10
31379;DHT22;61664;48.112;11.662;2024-01-06T01:16:22;9.40;93.00
31379;DHT22;61664;48.112;11.662;2024-01-06T01:18:49;9.50;93.10
31379;DHT22;61664;48.112;11.662;2024-01-06T01:21:16;9.40;93.00
31379;DHT22;61664;48.112;11.662;2024-01-06T01:23:43;9.40;92.90
31379;DHT22;61664;48.112;11.662;2024-01-06T01:26:10;9.40;92.90
31379;DHT22;61664;48.112;11.662;2024-01-06T01:28:37;9.40;93.10
31379;DHT22;61664;48.112;11.662;2024-01-06T01:31:04;9.30;93.10
31379;DHT22;61664;48.112;11.662;2024-01-06T01:33:31;9.40;93.10
31379;DHT22;61664;48.112;11.662;2024-01-06T01:35:59;9.30;93.10
31379;DHT22;61664;48.112;11.662;2024-01-06T01:38:28;9.30;93.30
31379;DHT22;61664;48.112;11.662;2024-01-06T01:40:55;9.40;93.30
31379;DHT22;61664;48.112;11.662;2024-01-06T01:43:22;9.30;93.30
31379;DHT22;61664;48.112;11.662;2024-01-06T01:45:54;9.30;93.30
31379;DHT22;61664;48.112;11.662;2024-01-06T01:48:22;9.30;93.40
31379;DHT22;61664;48.112;11.662;2024-01-06T01:50:53;9.30;93.40
31379;DHT22;61664;48.112;11.662;2024-01-06T01:53:21;9.30;93.30
31379;DHT22;61664;48.112;11.662;2024-01-06T01:55:48;9.30;93.40
31379;DHT22;61664;48.112;11.662;2024-01-06T01:58:16;9.30;93.30
31379;DHT22;61664;48.112;11.662;2024-01-06T02:00:43;9.30;93.40
31379;DHT22;61664;48.112;11.662;2024-01-06T02:03:11;9.30;93.40
31379;DHT22;61664;48.112;11.662;2024-01-06T02:05:40;9.30;93.40
31379;DHT22;61664;48.112;11.662;2024-01-06T02:08:08;9.30;93.30
31379;DHT22;61664;48.112;11.662;2024-01-06T02:10:35;9.30;93.30
31379;DHT22;61664;48.112;11.662;2024-01-06T02:13:10;9.30;93.40
31379;DHT22;61664;48.112;11.662;2024-01-06T02:15:38;9.30;93.50
31379;DHT22;61664;48.112;11.662;2024-01-06T02:18:05;9.20;93.50
31379;DHT22;61664;48.112;11.662;2024-01-06T02:20:33;9.20;93.50
31379;DHT22;61664;48.112;11.662;2024-01-06T02:23:01;9.30;93.40
31379;DHT22;61664;48.112;11.662;2024-01-06T02:25:28;9.20;93.30
31379;DHT22;61664;48.112;11.662;2024-01-06T02:27:56;9.20;93.20
31379;DHT22;61664;48.112;11.662;2024-01-06T02:30:23;9.20;93.20
31379;DHT22;61664;48.112;11.662;2024-01-06T02:32:50;9.20;93.10
31379;DHT22;61664;48.112;11.662;2024-01-06T02:35:17;9.20;93.30
31379;DHT22;61664;48.112;11.662;2024-01-06T02:37:44;9.20;93.30
31379;DHT22;61664;48.112;11.662;2024-01-06T02:40:13;9.20;93.20
31379;DHT22;61664;48.112;11.662;2024-01-06T02:42:40;9.10;93.20
31379;DHT22;61664;48.112;11.662;2024-01-06T02:45:08;9.10;93.20
31379;DHT22;61664;48.112;11.662;2024-01-06T02:47:36;9.10;93.40
31379;DHT22;61664;48.112;11.662;2024-01-06T02:50:04;9.10;93.50
31379;DHT22;61664;48.112;11.662;2024-01-06T02:52:32;9.10;93.60
31379;DHT22;61664;48.112;11.662;2024-01-06T02:54:59;9.10;93.60
31379;DHT22;61664;48.112;11.662;2024-01-06T02:57:29;9.00;93.60
31379;DHT22;61664;48.112;11.662;2024-01-06T02:59:56;9.00;93.50
31379;DHT22;61664;48.112;11.662;2024-01-06T03:02:23;9.00;93.50
31379;DHT22;61664;48.112;11.662;2024-01-06T03:04:51;9.00;93.50
31379;DHT22;61664;48.112;11.662;2024-01-06T03:07:17;9.00;93.60
31379;DHT22;61664;48.112;11.662;2024-01-06T03:09:44;8.90;93.60
31379;DHT22;61664;48.112;11.662;2024-01-06T03:12:11;8.90;93.60
31379;DHT22;61664;48.112;11.662;2024-01-06T03:14:38;8.90;93.60
31379;DHT22;61664;48.112;11.662;2024-01-06T03:17:05;8.80;93.50
31379;DHT22;61664;48.112;11.662;2024-01-06T03:19:32;8.80;93.50
31379;DHT22;61664;48.112;11.662;2024-01-06T03:22:00;8.80;93.40
31379;DHT22;61664;48.112;11.662;2024-01-06T03:24:27;8.80;93.40
31379;DHT22;61664;48.112;11.662;2024-01-06T03:26:54;8.80;93.40
31379;DHT22;61664;48.112;11.662;2024-01-06T03:29:21;8.70;93.20
31379;DHT22;61664;48.112;11.662;2024-01-06T03:31:48;8.70;93.40
31379;DHT22;61664;48.112;11.662;2024-01-06T03:34:15;8.70;93.50
31379;DHT22;61664;48.112;11.662;2024-01-06T03:36:42;8.70;93.50
31379;DHT22;61664;48.112;11.662;2024-01-06T03:39:09;8.70;93.60
31379;DHT22;61664;48.112;11.662;2024-01-06T03:41:37;8.70;93.70
31379;DHT22;61664;48.112;11.662;2024-01-06T03:44:04;8.70;93.70
31379;DHT22;61664;48.112;11.662;2024-01-06T03:46:32;8.60;93.60
31379;DHT22;61664;48.112;11.662;2024-01-06T03:49:00;8.60;93.40
31379;DHT22;61664;48.112;11.662;2024-01-06T03:51:27;8.60;93.30
31379;DHT22;61664;48.112;11.662;2024-01-06T03:53:55;8.60;93.10
31379;DHT22;61664;48.112;11.662;2024-01-06T03:56:22;8.50;93.00
31379;DHT22;61664;48.112;11.662;2024-01-06T03:58:48;8.50;93.10
31379;DHT22;61664;48.112;11.662;2024-01-06T04:01:15;8.50;93.30
31379;DHT22;61664;48.112;11.662;2024-01-06T04:03:42;8.50;93.20
31379;DHT22;61664;48.112;11.662;2024-01-06T04:06:10;8.50;93.20
31379;DHT22;61664;48.112;11.662;2024-01-06T04:08:38;8.50;93.30
31379;DHT22;61664;48.112;11.662;2024-01-06T04:11:06;8.50;93.30
31379;DHT22;61664;48.112;11.662;2024-01-06T04:13:33;8.60;93.30
31379;DHT22;61664;48.112;11.662;2024-01-06T04:15:59;8.50;93.10
31379;DHT22;61664;48.112;11.662;2024-01-06T04:18:26;8.50;93.00
31379;DHT22;61664;48.112;11.662;2024-01-06T04:20:53;8.50;93.00
31379;DHT22;61664;48.112;11.662;2024-01-06T04:23:20;8.50;93.10
31379;DHT22;61664;48.112;11.662;2024-01-06T04:25:52;8.50;92.90
31379;DHT22;61664;48.112;11.662;2024-01-06T04:28:21;8.40;92.70
31379;DHT22;61664;48.112;11.662;2024-01-06T04:30:48;8.40;92.60
31379;DHT22;61664;48.112;11.662;2024-01-06T04:33:16;8.50;92.70
31379;DHT22;61664;48.112;11.662;2024-01-06T04:35:43;8.30;92.60
31379;DHT22;61664;48.112;11.662;2024-01-06T04:38:10;8.30;92.50
31379;DHT22;61664;48.112;11.662;2024-01-06T04:40:36;8.20;92.50
31379;DHT22;61664;48.112;11.662;2024-01-06T04:43:03;8.20;92.60
31379;DHT22;61664;48.112;11.662;2024-01-06T04:45:30;8.20;92.90
31379;DHT22;61664;48.112;11.662;2024-01-06T04:47:57;8.20;93.10
31379;DHT22;61664;48.112;11.662;2024-01-06T04:50:24;8.20;93.30
31379;DHT22;61664;48.112;11.662;2024-01-06T04:52:51;8.20;93.30
31379;DHT22;61664;48.112;11.662;2024-01-06T04:55:18;8.20;93.40
31379;DHT22;61664;48.112;11.662;2024-01-06T04:57:45;8.20;93.40
31379;DHT22;61664;48.112;11.662;2024-01-06T05:00:13;8.20;93.50
31379;DHT22;61664;48.112;11.662;2024-01-06T05:02:40;8.30;93.60
31379;DHT22;61664;48.112;11.662;2024-01-06T05:05:08;8.30;93.80
31379;DHT22;61664;48.112;11.662;2024-01-06T05:07:35;8.30;93.90
31379;DHT22;61664;48.112;11.662;2024-01-06T05:10:02;8.30;93.90
31379;DHT22;61664;48.112;11.662;2024-01-06T05:12:29;8.30;93.70
31379;DHT22;61664;48.112;11.662;2024-01-06T05:14:56;8.30;93.50
31379;DHT22;61664;48.112;11.662;2024-01-06T05:17:22;8.30;93.40
31379;DHT22;61664;48.112;11.662;2024-01-06T05:19:49;8.30;93.50
31379;DHT22;61664;48.112;11.662;2024-01-06T05:22:16;8.30;93.20
31379;DHT22;61664;48.112;11.662;2024-01-06T05:24:43;8.30;93.00
31379;DHT22;61664;48.112;11.662;2024-01-06T05:27:11;8.30;93.10
31379;DHT22;61664;48.112;11.662;2024-01-06T05:29:39;8.30;93.20
31379;DHT22;61664;48.112;11.662;2024-01-06T05:32:06;8.30;93.30
31379;DHT22;61664;48.112;11.662;2024-01-06T05:34:33;8.20;93.50
31379;DHT22;61664;48.112;11.662;2024-01-06T05:37:01;8.20;93.60
31379;DHT22;61664;48.112;11.662;2024-01-06T05:39:28;8.30;93.60
31379;DHT22;61664;48.112;11.662;2024-01-06T05:41:57;8.20;93.70
31379;DHT22;61664;48.112;11.662;2024-01-06T05:44:24;8.20;93.70
31379;DHT22;61664;48.112;11.662;2024-01-06T05:46:51;8.30;93.50
31379;DHT22;61664;48.112;11.662;2024-01-06T05:49:18;8.30;93.30
31379;DHT22;61664;48.112;11.662;2024-01-06T05:51:45;8.30;93.10
31379;DHT22;61664;48.112;11.662;2024-01-06T05:54:13;8.20;92.80
31379;DHT22;61664;48.112;11.662;2024-01-06T05:56:40;8.20;92.80
31379;DHT22;61664;48.112;11.662;2024-01-06T05:59:07;8.10;92.70
31379;DHT22;61664;48.112;11.662;2024-01-06T06:01:34;8.10;92.60
31379;DHT22;61664;48.112;11.662;2024-01-06T06:04:01;8.10;92.60
31379;DHT22;61664;48.112;11.662;2024-01-06T06:06:28;8.10;92.90
31379;DHT22;61664;48.112;11.662;2024-01-06T06:08:55;8.10;92.90
31379;DHT22;61664;48.112;11.662;2024-01-06T06:11:22;8.00;92.60
31379;DHT22;61664;48.112;11.662;2024-01-06T06:13:49;8.10;92.40
31379;DHT22;61664;48.112;11.662;2024-01-06T06:16:16;8.00;92.40
31379;DHT22;61664;48.112;11.662;2024-01-06T06:18:43;7.90;92.40
31379;DHT22;61664;48.112;11.662;2024-01-06T06:21:10;7.90;92.20
31379;DHT22;61664;48.112;11.662;2024-01-06T06:23:37;7.80;92.10
31379;DHT22;61664;48.112;11.662;2024-01-06T06:26:08;7.80;92.30
31379;DHT22;61664;48.112;11.662;2024-01-06T06:28:35;7.80;92.80
31379;DHT22;61664;48.112;11.662;2024-01-06T06:31:02;7.80;93.20
31379;DHT22;61664;48.112;11.662;2024-01-06T06:33:30;7.70;93.40
31379;DHT22;61664;48.112;11.662;2024-01-06T06:36:00;7.80;93.50
31379;DHT22;61664;48.112;11.662;2024-01-06T06:38:28;7.80;93.60
31379;DHT22;61664;48.112;11.662;2024-01-06T06:40:56;7.80;93.50
31379;DHT22;61664;48.112;11.662;2024-01-06T06:43:23;7.80;93.50
31379;DHT22;61664;48.112;11.662;2024-01-06T06:45:50;7.80;93.40
31379;DHT22;61664;48.112;11.662;2024-01-06T06:48:16;7.90;93.70
31379;DHT22;61664;48.112;11.662;2024-01-06T06:50:44;7.90;93.80
31379;DHT22;61664;48.112;11.662;2024-01-06T06:53:11;7.90;93.70
31379;DHT22;61664;48.112;11.662;2024-01-06T06:55:39;7.90;93.80
31379;DHT22;61664;48.112;11.662;2024-01-06T06:58:07;7.90;93.90
31379;DHT22;61664;48.112;11.662;2024-01-06T07:00:34;7.90;94.10
31379;DHT22;61664;48.112;11.662;2024-01-06T07:03:02;7.90;93.70
31379;DHT22;61664;48.112;11.662;2024-01-06T07:05:29;7.90;93.60
31379;DHT22;61664;48.112;11.662;2024-01-06T07:07:56;7.90;93.50
31379;DHT22;61664;48.112;11.662;2024-01-06T07:10:26;7.90;93.60
31379;DHT22;61664;48.112;11.662;2024-01-06T07:12:53;7.90;93.60
31379;DHT22;61664;48.112;11.662;2024-01-06T07:15:20;7.90;93.60
31379;DHT22;61664;48.112;11.662;2024-01-06T07:17:47;7.90;93.60
31379;DHT22;61664;48.112;11.662;2024-01-06T07:20:14;7.90;93.60
31379;DHT22;61664;48.112;11.662;2024-01-06T07:22:41;7.90;93.50
31379;DHT22;61664;48.112;11.662;2024-01-06T07:25:08;7.80;93.50
31379;DHT22;61664;48.112;11.662;2024-01-06T07:27:35;7.80;93.60
31379;DHT22;61664;48.112;11.662;2024-01-06T07:30:02;7.90;93.80
31379;DHT22;61664;48.112;11.662;2024-01-06T07:32:30;7.90;93.70
31379;DHT22;61664;48.112;11.662;2024-01-06T07:34:57;7.80;93.50
31379;DHT22;61664;48.112;11.662;2024-01-06T07:37:24;7.80;93.50
31379;DHT22;61664;48.112;11.662;2024-01-06T07:39:52;7.90;93.60
31379;DHT22;61664;48.112;11.662;2024-01-06T07:42:19;7.80;93.70
31379;DHT22;61664;48.112;11.662;2024-01-06T07:44:46;7.90;93.80
31379;DHT22;61664;48.112;11.662;2024-01-06T07:47:13;7.80;93.70
31379;DHT22;61664;48.112;11.662;2024-01-06T07:49:41;7.80;93.80
31379;DHT22;61664;48.112;11.662;2024-01-06T07:52:08;7.90;93.90
31379;DHT22;61664;48.112;11.662;2024-01-06T07:54:35;7.90;93.80
31379;DHT22;61664;48.112;11.662;2024-01-06T07:57:02;7.90;93.60
31379;DHT22;61664;48.112;11.662;2024-01-06T07:59:29;7.90;93.40
31379;DHT22;61664;48.112;11.662;2024-01-06T08:01:56;7.90;93.20
31379;DHT22;61664;48.112;11.662;2024-01-06T08:04:24;7.90;93.00
31379;DHT22;61664;48.112;11.662;2024-01-06T08:06:50;7.80;92.90
31379;DHT22;61664;48.112;11.662;2024-01-06T08:09:21;7.80;93.00
31379;DHT22;61664;48.112;11.662;2024-01-06T08:11:50;7.80;93.30
31379;DHT22;61664;48.112;11.662;2024-01-06T08:14:17;7.90;93.50
31379;DHT22;61664;48.112;11.662;2024-01-06T08:16:44;7.80;93.70
31379;DHT22;61664;48.112;11.662;2024-01-06T08:19:12;7.90;93.70
31379;DHT22;61664;48.112;11.662;2024-01-06T08:21:40;7.90;93.80
31379;DHT22;61664;48.112;11.662;2024-01-06T08:24:07;8.00;93.90
31379;DHT22;61664;48.112;11.662;2024-01-06T08:26:34;7.90;94.00
31379;DHT22;61664;48.112;11.662;2024-01-06T08:29:01;8.00;94.00
31379;DHT22;61664;48.112;11.662;2024-01-06T08:31:28;8.00;94.10
31379;DHT22;61664;48.112;11.662;2024-01-06T08:33:55;8.00;93.90
31379;DHT22;61664;48.112;11.662;2024-01-06T08:36:22;8.00;93.70
31379;DHT22;61664;48.112;11.662;2024-01-06T08:38:49;8.10;93.80
31379;DHT22;61664;48.112;11.662;2024-01-06T08:41:16;8.10;93.80
31379;DHT22;61664;48.112;11.662;2024-01-06T08:43:43;8.00;93.60
31379;DHT22;61664;48.112;11.662;2024-01-06T08:46:10;8.10;93.50
31379;DHT22;61664;48.112;11.662;2024-01-06T08:48:38;8.10;93.50
31379;DHT22;61664;48.112;11.662;2024-01-06T08:51:05;8.10;93.70
31379;DHT22;61664;48.112;11.662;2024-01-06T08:53:32;8.00;93.80
31379;DHT22;61664;48.112;11.662;2024-01-06T08:55:59;8.10;93.90
31379;DHT22;61664;48.112;11.662;2024-01-06T08:58:38;8.10;93.80
31379;DHT22;61664;48.112;11.662;2024-01-06T09:01:05;8.10;93.60
31379;DHT22;61664;48.112;11.662;2024-01-06T09:03:32;8.10;93.30
31379;DHT22;61664;48.112;11.662;2024-01-06T09:05:59;8.10;93.20
31379;DHT22;61664;48.112;11.662;2024-01-06T09:08:27;8.10;93.30
31379;DHT22;61664;48.112;11.662;2024-01-06T09:10:54;8.10;93.40
31379;DHT22;61664;48.112;11.662;2024-01-06T09:13:25;8.10;93.60
31379;DHT22;61664;48.112;11.662;2024-01-06T09:15:52;8.10;93.70
31379;DHT22;61664;48.112;11.662;2024-01-06T09:18:19;8.20;93.80
31379;DHT22;61664;48.112;11.662;2024-01-06T09:20:47;8.10;93.60
31379;DHT22;61664;48.112;11.662;2024-01-06T09:23:16;8.10;93.40
31379;DHT22;61664;48.112;11.662;2024-01-06T09:25:45;8.10;93.10
31379;DHT22;61664;48.112;11.662;2024-01-06T09:28:16;8.10;92.90
31379;DHT22;61664;48.112;11.662;2024-01-06T09:30:43;8.10;92.80
31379;DHT22;61664;48.112;11.662;2024-01-06T09:33:10;8.10;92.90
31379;DHT22;61664;48.112;11.662;2024-01-06T09:35:37;8.00;92.90
31379;DHT22;61664;48.112;11.662;2024-01-06T09:38:04;8.00;92.90
31379;DHT22;61664;48.112;11.662;2024-01-06T09:40:31;8.00;93.00
31379;DHT22;61664;48.112;11.662;2024-01-06T09:42:59;7.90;92.90
31379;DHT22;61664;48.112;11.662;2024-01-06T09:45:26;7.90;92.90
31379;DHT22;61664;48.112;11.662;2024-01-06T09:47:54;7.90;93.00
31379;DHT22;61664;48.112;11.662;2024-01-06T09:50:22;7.90;93.00
31379;DHT22;61664;48.112;11.662;2024-01-06T09:52:49;7.90;93.10
31379;DHT22;61664;48.112;11.662;2024-01-06T09:55:24;7.90;93.00
31379;DHT22;61664;48.112;11.662;2024-01-06T09:57:54;7.90;92.80
31379;DHT22;61664;48.112;11.662;2024-01-06T10:00:21;7.80;92.70
31379;DHT22;61664;48.112;11.662;2024-01-06T10:02:49;7.80;92.60
31379;DHT22;61664;48.112;11.662;2024-01-06T10:05:18;7.80;92.40
31379;DHT22;61664;48.112;11.662;2024-01-06T10:07:45;7.80;92.50
31379;DHT22;61664;48.112;11.662;2024-01-06T10:10:14;7.70;92.60
31379;DHT22;61664;48.112;11.662;2024-01-06T10:12:42;7.70;92.50
31379;DHT22;61664;48.112;11.662;2024-01-06T10:15:11;7.70;92.50
31379;DHT22;61664;48.112;11.662;2024-01-06T10:17:40;7.70;92.80
31379;DHT22;61664;48.112;11.662;2024-01-06T10:20:09;7.70;92.90
31379;DHT22;61664;48.112;11.662;2024-01-06T10:22:41;7.60;93.00
31379;DHT22;61664;48.112;11.662;2024-01-06T10:25:09;7.70;93.00
31379;DHT22;61664;48.112;11.662;2024-01-06T10:27:39;7.70;93.00
31379;DHT22;61664;48.112;11.662;2024-01-06T10:30:09;7.70;93.20
31379;DHT22;61664;48.112;11.662;2024-01-06T10:32:36;7.70;93.40
31379;DHT22;61664;48.112;11.662;2024-01-06T10:35:04;7.70;93.50
31379;DHT22;61664;48.112;11.662;2024-01-06T10:37:33;7.70;93.40
31379;DHT22;61664;48.112;11.662;2024-01-06T10:40:11;7.80;93.30
31379;DHT22;61664;48.112;11.662;2024-01-06T10:42:40;7.80;93.20
31379;DHT22;61664;48.112;11.662;2024-01-06T10:45:13;7.80;92.90
31379;DHT22;61664;48.112;11.662;2024-01-06T10:47:42;7.80;92.80
31379;DHT22;61664;48.112;11.662;2024-01-06T10:50:10;7.70;92.60
31379;DHT22;61664;48.112;11.662;2024-01-06T10:52:38;7.70;92.60
31379;DHT22;61664;48.112;11.662;2024-01-06T10:55:06;7.70;92.60
31379;DHT22;61664;48.112;11.662;2024-01-06T10:57:34;7.70;92.60
31379;DHT22;61664;48.112;11.662;2024-01-06T11:00:01;7.70;92.80
31379;DHT22;61664;48.112;11.662;2024-01-06T11:02:29;7.60;92.90
31379;DHT22;61664;48.112;11.662;2024-01-06T11:04:58;7.70;93.00
31379;DHT22;61664;48.112;11.662;2024-01-06T11:07:25;7.70;92.80
31379;DHT22;61664;48.112;11.662;2024-01-06T11:12:29;7.60;92.70
31379;DHT22;61664;48.112;11.662;2024-01-06T11:14:56;7.60;92.60
31379;DHT22;61664;48.112;11.662;2024-01-06T11:17:51;7.60;92.60
31379;DHT22;61664;48.112;11.662;2024-01-06T11:20:22;7.50;92.90
31379;DHT22;61664;48.112;11.662;2024-01-06T11:22:50;7.60;93.00
31379;DHT22;61664;48.112;11.662;2024-01-06T11:25:22;7.60;93.10
31379;DHT22;61664;48.112;11.662;2024-01-06T11:27:49;7.60;93.20
31379;DHT22;61664;48.112;11.662;2024-01-06T11:30:25;7.60;93.30
31379;DHT22;61664;48.112;11.662;2024-01-06T11:32:56;7.60;93.40
31379;DHT22;61664;48.112;11.662;2024-01-06T11:35:27;7.60;93.40
31379;DHT22;61664;48.112;11.662;2024-01-06T11:37:56;7.70;93.30
31379;DHT22;61664;48.112;11.662;2024-01-06T11:40:34;7.60;93.00
31379;DHT22;61664;48.112;11.662;2024-01-06T11:43:05;7.60;93.00
31379;DHT22;61664;48.112;11.662;2024-01-06T11:45:35;7.60;93.00
31379;DHT22;61664;48.112;11.662;2024-01-06T11:48:08;7.70;93.10
31379;DHT22;61664;48.112;11.662;2024-01-06T11:50:38;7.60;93.00
31379;DHT22;61664;48.112;11.662;2024-01-06T11:53:07;7.60;93.10
31379;DHT22;61664;48.112;11.662;2024-01-06T11:55:38;7.60;93.30
31379;DHT22;61664;48.112;11.662;2024-01-06T11:58:06;7.60;93.70
31379;DHT22;61664;48.112;11.662;2024-01-06T12:00:34;7.60;93.60
31379;DHT22;61664;48.112;11.662;2024-01-06T12:03:22;7.60;93.60
31379;DHT22;61664;48.112;11.662;2024-01-06T12:06:02;7.60;93.50
31379;DHT22;61664;48.112;11.662;2024-01-06T12:08:30;7.60;93.50
31379;DHT22;61664;48.112;11.662;2024-01-06T12:11:03;7.70;93.10
31379;DHT22;61664;48.112;11.662;2024-01-06T12:13:31;7.60;93.40
31379;DHT22;61664;48.112;11.662;2024-01-06T12:15:58;7.60;93.30
31379;DHT22;61664;48.112;11.662;2024-01-06T12:18:27;7.60;93.30
31379;DHT22;61664;48.112;11.662;2024-01-06T12:20:54;7.60;93.20
31379;DHT22;61664;48.112;11.662;2024-01-06T12:23:25;7.60;93.30
31379;DHT22;61664;48.112;11.662;2024-01-06T12:26:00;7.60;93.50
31379;DHT22;61664;48.112;11.662;2024-01-06T12:28:27;7.60;93.70
31379;DHT22;61664;48.112;11.662;2024-01-06T12:30:54;7.60;93.70
31379;DHT22;61664;48.112;11.662;2024-01-06T12:33:23;7.60;93.80
31379;DHT22;61664;48.112;11.662;2024-01-06T12:35:51;7.70;93.90
31379;DHT22;61664;48.112;11.662;2024-01-06T12:38:20;7.60;93.80
31379;DHT22;61664;48.112;11.662;2024-01-06T12:40:46;7.70;93.70
31379;DHT22;61664;48.112;11.662;2024-01-06T12:43:13;7.70;93.80
31379;DHT22;61664;48.112;11.662;2024-01-06T12:45:40;7.70;93.80
31379;DHT22;61664;48.112;11.662;2024-01-06T12:48:10;7.70;93.70
31379;DHT22;61664;48.112;11.662;2024-01-06T12:50:38;7.70;93.70
31379;DHT22;61664;48.112;11.662;2024-01-06T12:53:05;7.60;93.70
31379;DHT22;61664;48.112;11.662;2024-01-06T12:55:32;7.60;93.60
31379;DHT22;61664;48.112;11.662;2024-01-06T12:57:59;7.60;93.70
31379;DHT22;61664;48.112;11.662;2024-01-06T13:00:28;7.60;93.60
31379;DHT22;61664;48.112;11.662;2024-01-06T13:02:57;7.60;93.70
31379;DHT22;61664;48.112;11.662;2024-01-06T13:05:24;7.60;93.60
31379;DHT22;61664;48.112;11.662;2024-01-06T13:07:51;7.50;93.60
31379;DHT22;61664;48.112;11.662;2024-01-06T13:10:19;7.60;93.60
31379;DHT22;61664;48.112;11.662;2024-01-06T13:12:46;7.50;93.60
31379;DHT22;61664;48.112;11.662;2024-01-06T13:15:13;7.50;93.70
31379;DHT22;61664;48.112;11.662;2024-01-06T13:17:40;7.50;93.80
31379;DHT22;61664;48.112;11.662;2024-01-06T13:20:08;7.60;94.00
31379;DHT22;61664;48.112;11.662;2024-01-06T13:22:35;7.50;94.00
31379;DHT22;61664;48.112;11.662;2024-01-06T13:25:02;7.50;94.20
31379;DHT22;61664;48.112;11.662;2024-01-06T13:27:29;7.50;94.10
31379;DHT22;61664;48.112;11.662;2024-01-06T13:29:56;7.60;94.10
31379;DHT22;61664;48.112;11.662;2024-01-06T13:32:23;7.60;94.00
31379;DHT22;61664;48.112;11.662;2024-01-06T13:34:50;7.60;94.10
31379;DHT22;61664;48.112;11.662;2024-01-06T13:37:21;7.60;94.20
31379;DHT22;61664;48.112;11.662;2024-01-06T13:39:50;7.60;94.20
31379;DHT22;61664;48.112;11.662;2024-01-06T13:42:18;7.60;94.20
31379;DHT22;61664;48.112;11.662;2024-01-06T13:44:48;7.70;94.30
31379;DHT22;61664;48.112;11.662;2024-01-06T13:47:15;7.70;94.10
31379;DHT22;61664;48.112;11.662;2024-01-06T13:49:42;7.70;94.00
31379;DHT22;61664;48.112;11.662;2024-01-06T13:52:09;7.70;93.90
31379;DHT22;61664;48.112;11.662;2024-01-06T13:54:36;7.70;93.80
31379;DHT22;61664;48.112;11.662;2024-01-06T13:57:03;7.70;93.50
31379;DHT22;61664;48.112;11.662;2024-01-06T13:59:30;7.70;93.40
31379;DHT22;61664;48.112;11.662;2024-01-06T14:01:57;7.70;93.50
31379;DHT22;61664;48.112;11.662;2024-01-06T14:04:24;7.60;93.40
31379;DHT22;61664;48.112;11.662;2024-01-06T14:06:51;7.60;93.50
31379;DHT22;61664;48.112;11.662;2024-01-06T14:09:22;7.60;93.60
31379;DHT22;61664;48.112;11.662;2024-01-06T14:11:49;7.60;93.80
31379;DHT22;61664;48.112;11.662;2024-01-06T14:14:16;7.60;93.90
31379;DHT22;61664;48.112;11.662;2024-01-06T14:16:43;7.60;94.00
31379;DHT22;61664;48.112;11.662;2024-01-06T14:19:10;7.60;93.90
31379;DHT22;61664;48.112;11.662;2024-01-06T14:21:37;7.60;93.70
31379;DHT22;61664;48.112;11.662;2024-01-06T14:24:05;7.60;93.70
31379;DHT22;61664;48.112;11.662;2024-01-06T14:26:33;7.60;93.40
31379;DHT22;61664;48.112;11.662;2024-01-06T14:29:00;7.50;93.30
31379;DHT22;61664;48.112;11.662;2024-01-06T14:31:27;7.50;93.40
31379;DHT22;61664;48.112;11.662;2024-01-06T14:33:54;7.50;93.70
31379;DHT22;61664;48.112;11.662;2024-01-06T14:36:26;7.50;93.70
31379;DHT22;61664;48.112;11.662;2024-01-06T14:38:53;7.50;93.90
31379;DHT22;61664;48.112;11.662;2024-01-06T14:41:20;7.60;93.90
31379;DHT22;61664;48.112;11.662;2024-01-06T14:43:47;7.50;94.00
31379;DHT22;61664;48.112;11.662;2024-01-06T14:46:14;7.50;94.00
31379;DHT22;61664;48.112;11.662;2024-01-06T14:48:40;7.50;93.90
31379;DHT22;61664;48.112;11.662;2024-01-06T14:51:07;7.60;93.90
31379;DHT22;61664;48.112;11.662;2024-01-06T14:53:34;7.60;93.80
31379;DHT22;61664;48.112;11.662;2024-01-06T14:56:02;7.50;93.70
31379;DHT22;61664;48.112;11.662;2024-01-06T14:58:30;7.50;93.60
31379;DHT22;61664;48.112;11.662;2024-01-06T15:00:57;7.50;93.70
31379;DHT22;61664;48.112;11.662;2024-01-06T15:03:26;7.50;93.70
31379;DHT22;61664;48.112;11.662;2024-01-06T15:05:53;7.60;93.70
31379;DHT22;61664;48.112;11.662;2024-01-06T15:08:20;7.50;93.70
31379;DHT22;61664;48.112;11.662;2024-01-06T15:10:47;7.50;93.50
31379;DHT22;61664;48.112;11.662;2024-01-06T15:13:14;7.50;93.50
31379;DHT22;61664;48.112;11.662;2024-01-06T15:15:41;7.40;93.50
31379;DHT22;61664;48.112;11.662;2024-01-06T15:18:08;7.40;93.50
31379;DHT22;61664;48.112;11.662;2024-01-06T15:20:38;7.40;93.60
31379;DHT22;61664;48.112;11.662;2024-01-06T15:23:06;7.40;93.60
31379;DHT22;61664;48.112;11.662;2024-01-06T15:25:33;7.30;93.50
31379;DHT22;61664;48.112;11.662;2024-01-06T15:28:00;7.30;93.60
31379;DHT22;61664;48.112;11.662;2024-01-06T15:30:27;7.30;93.40
31379;DHT22;61664;48.112;11.662;2024-01-06T15:32:54;7.30;93.30
31379;DHT22;61664;48.112;11.662;2024-01-06T15:35:21;7.20;92.80